Time;durP1;ratioP1;P1;durP2;ratioP2;P2;SDS_P1;SDS_P2;PMS_P1;PMS_P2;Temp;Humidity;BMP_temperature;BMP_pressure;BME280_temperature;BME280_humidity;BME280_pressure;Samples;Min_cycle;Max_cycle;Signal;HPM_P1;HPM_P2
2022/02/27 00:00:54;;;;;;;5.78;2.50;;;;;;;0.28;100.00;102697.63;5214096;28;20119;-76
2022/02/27 00:03:25;;;;;;;7.22;2.08;;;;;;;0.19;100.00;102692.13;5209568;28;20487;-77
2022/02/27 00:05:55;;;;;;;5.07;2.30;;;;;;;0.26;100.00;102701.84;5214142;28;20020;-76
2022/02/27 00:08:25;;;;;;;6.95;2.28;;;;;;;0.16;100.00;102702.28;5209905;28;20033;-74
2022/02/27 00:10:56;;;;;;;8.90;2.20;;;;;;;0.00;100.00;102702.47;5205698;28;20025;-75
2022/02/27 00:13:26;;;;;;;5.88;2.38;;;;;;;-0.10;100.00;102699.47;5205341;28;20502;-76
2022/02/27 00:15:56;;;;;;;7.63;2.38;;;;;;;-0.13;100.00;102699.34;5198364;28;20026;-75
2022/02/27 00:18:27;;;;;;;7.88;2.47;;;;;;;-0.10;100.00;102703.72;5208269;28;20033;-76
2022/02/27 00:20:57;;;;;;;5.57;2.35;;;;;;;-0.12;100.00;102705.34;5208948;28;20049;-76
2022/02/27 00:23:27;;;;;;;7.63;3.00;;;;;;;-0.02;100.00;102704.09;5211237;28;20487;-76
2022/02/27 00:25:58;;;;;;;8.07;3.22;;;;;;;-0.06;100.00;102705.63;5209226;28;20021;-75
2022/02/27 00:28:28;;;;;;;11.10;3.63;;;;;;;-0.05;100.00;102700.53;5209598;28;20033;-73
2022/02/27 00:30:58;;;;;;;9.02;3.60;;;;;;;-0.05;100.00;102695.38;5210150;28;20386;-77
2022/02/27 00:33:28;;;;;;;6.95;3.17;;;;;;;0.11;100.00;102696.09;5206906;28;20140;-76
2022/02/27 00:35:59;;;;;;;13.57;3.42;;;;;;;0.09;100.00;102697.72;5207354;28;20040;-77
2022/02/27 00:38:30;;;;;;;9.43;3.00;;;;;;;0.22;100.00;102697.38;5207531;28;20021;-75
2022/02/27 00:41:00;;;;;;;7.80;2.60;;;;;;;0.17;100.00;102695.44;5201177;28;20029;-75
2022/02/27 00:43:31;;;;;;;11.18;2.85;;;;;;;0.04;100.00;102698.34;5201267;28;20051;-76
2022/02/27 00:46:01;;;;;;;10.93;3.25;;;;;;;-0.01;100.00;102690.44;5199905;28;20033;-76
2022/02/27 00:48:32;;;;;;;9.18;2.83;;;;;;;-0.09;100.00;102696.09;5209334;28;20090;-76
2022/02/27 00:51:03;;;;;;;7.60;3.03;;;;;;;-0.05;100.00;102699.66;5211708;28;20506;-76
2022/02/27 00:53:33;;;;;;;6.60;2.47;;;;;;;-0.06;100.00;102697.91;5214166;28;20045;-76
2022/02/27 00:56:04;;;;;;;8.95;3.00;;;;;;;-0.01;100.00;102698.16;5211399;28;20160;-76
2022/02/27 00:58:34;;;;;;;8.68;2.72;;;;;;;0.07;100.00;102696.75;5212736;28;20025;-76
2022/02/27 01:01:04;;;;;;;6.40;2.72;;;;;;;0.23;100.00;102690.56;5212322;28;20550;-76
2022/02/27 01:03:34;;;;;;;8.60;2.67;;;;;;;0.04;100.00;102688.94;5213482;28;20033;-76
2022/02/27 01:06:05;;;;;;;9.68;3.20;;;;;;;-0.08;100.00;102692.69;5212483;28;20113;-76
2022/02/27 01:08:35;;;;;;;8.82;2.85;;;;;;;-0.15;100.00;102689.81;5213846;28;20475;-77
2022/02/27 01:11:05;;;;;;;6.90;2.70;;;;;;;-0.12;100.00;102689.94;5203931;28;20230;-76
2022/02/27 01:13:36;;;;;;;11.05;2.75;;;;;;;-0.10;100.00;102693.44;5206586;28;20037;-75
2022/02/27 01:16:07;;;;;;;6.97;2.47;;;;;;;-0.24;100.00;102684.31;5202517;28;20026;-76
2022/02/27 01:18:37;;;;;;;9.32;2.83;;;;;;;-0.34;100.00;102682.16;5195983;28;20397;-76
2022/02/27 01:21:07;;;;;;;8.73;2.53;;;;;;;-0.33;100.00;102684.81;5202868;28;20037;-76
2022/02/27 01:23:37;;;;;;;9.93;3.03;;;;;;;-0.18;100.00;102685.41;5209907;28;20037;-76
2022/02/27 01:26:08;;;;;;;12.20;2.90;;;;;;;-0.25;100.00;102682.56;5212293;28;20394;-76
2022/02/27 01:28:39;;;;;;;10.40;2.70;;;;;;;-0.12;100.00;102690.81;5211891;28;20029;-75
2022/02/27 01:31:09;;;;;;;10.43;2.75;;;;;;;-0.23;100.00;102688.63;5212184;28;20052;-76
2022/02/27 01:33:40;;;;;;;12.88;3.15;;;;;;;-0.07;100.00;102686.75;5211718;28;20025;-73
2022/02/27 01:36:10;;;;;;;7.53;2.85;;;;;;;-0.15;100.00;102692.38;5212669;28;20025;-76
2022/02/27 01:38:41;;;;;;;5.65;2.40;;;;;;;-0.25;100.00;102690.28;5212583;28;20041;-75
2022/02/27 01:41:14;;;;;;;9.57;3.28;;;;;;;-0.36;100.00;102691.50;5203478;28;20029;-74
2022/02/27 01:43:44;;;;;;;8.98;3.28;;;;;;;-0.35;100.00;102695.81;5203055;28;20022;-73
2022/02/27 01:46:15;;;;;;;9.90;3.17;;;;;;;-0.45;100.00;102701.38;5200897;28;20033;-76
2022/02/27 01:48:46;;;;;;;11.18;3.40;;;;;;;-0.39;100.00;102702.50;5209796;28;20044;-76
2022/02/27 01:51:16;;;;;;;10.18;3.40;;;;;;;-0.33;100.00;102695.09;5204544;28;20471;-76
2022/02/27 01:53:47;;;;;;;8.35;3.03;;;;;;;-0.43;100.00;102699.75;5209857;28;20025;-76
2022/02/27 01:56:18;;;;;;;9.13;2.88;;;;;;;-0.52;100.00;102696.78;5209946;28;20513;-76
2022/02/27 01:58:49;;;;;;;9.48;3.30;;;;;;;-0.57;100.00;102695.72;5204440;28;20029;-76
2022/02/27 02:01:19;;;;;;;10.75;3.15;;;;;;;-0.40;100.00;102692.19;5204531;28;20106;-76
2022/02/27 02:03:49;;;;;;;7.50;2.90;;;;;;;-0.41;100.00;102690.44;5205423;28;20091;-76
2022/02/27 02:06:19;;;;;;;13.15;3.25;;;;;;;-0.75;100.00;102703.50;5205332;28;20033;-76
2022/02/27 02:08:50;;;;;;;15.20;3.65;;;;;;;-0.62;100.00;102702.34;5203675;28;20082;-74
2022/02/27 02:11:20;;;;;;;9.70;3.13;;;;;;;-0.41;100.00;102687.88;5200488;28;20036;-76
2022/02/27 02:13:51;;;;;;;11.60;3.10;;;;;;;-0.53;100.00;102689.91;5203208;28;20128;-74
2022/02/27 02:16:21;;;;;;;9.70;2.97;;;;;;;-0.39;100.00;102693.94;5200576;28;20026;-77
2022/02/27 02:18:51;;;;;;;11.35;3.30;;;;;;;-0.40;100.00;102689.63;5199685;28;20091;-76
2022/02/27 02:21:22;;;;;;;8.63;2.60;;;;;;;-0.26;100.00;102688.47;5208664;28;20037;-76
2022/02/27 02:23:52;;;;;;;10.38;3.00;;;;;;;-0.30;100.00;102689.16;5209948;28;20039;-75
2022/02/27 02:26:23;;;;;;;10.65;3.00;;;;;;;-0.30;100.00;102686.59;5208814;28;20481;-75
2022/02/27 02:28:54;;;;;;;10.13;3.15;;;;;;;-0.23;100.00;102686.06;5209405;28;20025;-76
2022/02/27 02:31:24;;;;;;;9.68;2.70;;;;;;;-0.23;100.00;102680.94;5207490;28;20032;-75
2022/02/27 02:33:54;;;;;;;7.63;2.53;;;;;;;-0.34;100.00;102670.22;5209110;28;20475;-76
2022/02/27 02:36:25;;;;;;;7.03;2.75;;;;;;;-0.36;100.00;102678.66;5207849;28;20071;-75
2022/02/27 02:38:55;;;;;;;8.57;2.83;;;;;;;-0.39;100.00;102676.81;5205706;28;20289;-76
2022/02/27 02:41:25;;;;;;;8.05;2.45;;;;;;;-0.54;100.00;102680.44;5202248;28;20021;-76
2022/02/27 02:43:56;;;;;;;8.35;2.63;;;;;;;-0.45;100.00;102675.69;5202500;28;20040;-75
2022/02/27 02:46:27;;;;;;;8.73;2.60;;;;;;;-0.44;100.00;102674.88;5202407;28;20087;-74
2022/02/27 02:48:57;;;;;;;5.25;2.53;;;;;;;-0.49;100.00;102671.25;5206994;28;20021;-74
2022/02/27 02:51:28;;;;;;;8.18;2.83;;;;;;;-0.45;100.00;102683.38;5207644;28;20024;-75
2022/02/27 02:53:58;;;;;;;7.40;2.60;;;;;;;-0.47;100.00;102673.06;5209428;28;20017;-76
2022/02/27 02:56:29;;;;;;;10.20;2.90;;;;;;;-0.46;100.00;102672.25;5205389;28;20099;-77
2022/02/27 02:58:59;;;;;;;10.82;2.40;;;;;;;-0.52;100.00;102665.97;5208869;28;20433;-74
2022/02/27 03:01:30;;;;;;;8.60;2.60;;;;;;;-0.49;100.00;102671.25;5208004;28;20034;-76
2022/02/27 03:04:01;;;;;;;8.27;2.75;;;;;;;-0.51;100.00;102667.75;5208075;28;20141;-75
2022/02/27 03:06:32;;;;;;;11.98;2.60;;;;;;;-0.62;100.00;102666.41;5207842;28;20017;-76
2022/02/27 03:09:04;;;;;;;10.07;3.00;;;;;;;-0.70;100.00;102665.22;5210136;28;20094;-75
2022/02/27 03:11:34;;;;;;;10.70;3.33;;;;;;;-0.60;100.00;102672.47;5198583;28;20025;-76
2022/02/27 03:14:04;;;;;;;8.20;2.55;;;;;;;-0.58;100.00;102665.75;5203156;28;20028;-76
2022/02/27 03:16:35;;;;;;;9.38;3.05;;;;;;;-0.52;100.00;102663.41;5199496;28;20037;-76
2022/02/27 03:19:05;;;;;;;11.15;3.20;;;;;;;-0.38;100.00;102664.88;5208271;28;20040;-75
2022/02/27 03:21:35;;;;;;;9.32;2.90;;;;;;;-0.40;100.00;102662.22;5204709;28;20044;-74
2022/02/27 03:24:05;;;;;;;14.43;3.20;;;;;;;-0.49;100.00;102668.69;5200647;28;20488;-76
2022/02/27 03:26:36;;;;;;;9.02;2.50;;;;;;;-0.43;100.00;102656.97;5204072;28;20052;-76
2022/02/27 03:29:06;;;;;;;13.40;3.20;;;;;;;-0.43;100.00;102666.34;5199320;28;20086;-73
2022/02/27 03:31:37;;;;;;;11.25;2.75;;;;;;;-0.41;100.00;102669.91;5207563;28;20028;-74
2022/02/27 03:34:07;;;;;;;8.90;3.05;;;;;;;-0.53;100.00;102665.09;5207455;28;20032;-76
2022/02/27 03:36:37;;;;;;;10.40;3.28;;;;;;;-0.53;100.00;102664.22;5204289;28;20274;-76
2022/02/27 03:39:08;;;;;;;10.38;3.00;;;;;;;-0.62;100.00;102677.56;5206722;28;20036;-76
2022/02/27 03:41:38;;;;;;;11.63;3.15;;;;;;;-0.63;100.00;102668.09;5202572;28;20117;-76
2022/02/27 03:44:08;;;;;;;12.05;3.35;;;;;;;-0.58;100.00;102676.00;5204330;28;20025;-77
2022/02/27 03:46:39;;;;;;;8.27;2.88;;;;;;;-0.69;100.00;102674.66;5217500;22;20009;-78
2022/02/27 03:49:09;;;;;;;16.60;3.47;;;;;;;-0.73;100.00;102678.78;5182277;28;20449;-78
2022/02/27 03:51:39;;;;;;;12.13;2.80;;;;;;;-0.58;100.00;102678.56;5214960;28;20117;-79
2022/02/27 03:54:10;;;;;;;6.13;2.60;;;;;;;-0.72;100.00;102684.81;5182327;28;20026;-78
2022/02/27 03:56:40;;;;;;;12.40;3.10;;;;;;;-0.74;100.00;102689.84;5198997;28;20412;-79
2022/02/27 03:59:11;;;;;;;10.15;3.03;;;;;;;-0.85;100.00;102685.97;5199774;28;20112;-78
2022/02/27 04:01:41;;;;;;;10.27;3.05;;;;;;;-0.95;100.00;102690.59;5199191;28;20032;-79
2022/02/27 04:04:12;;;;;;;12.23;3.70;;;;;;;-0.55;100.00;102692.41;5199336;28;20029;-78
2022/02/27 04:06:42;;;;;;;12.25;3.47;;;;;;;-0.80;100.00;102691.28;5201129;28;20025;-79
2022/02/27 04:09:12;;;;;;;8.73;3.47;;;;;;;-0.56;100.00;102692.34;5199782;28;20033;-79
2022/02/27 04:11:43;;;;;;;7.63;3.22;;;;;;;-0.47;100.00;102683.34;5200920;28;20144;-79
2022/02/27 04:14:13;;;;;;;11.95;3.15;;;;;;;-0.51;100.00;102693.41;5201954;28;20021;-79
2022/02/27 04:16:43;;;;;;;12.30;3.70;;;;;;;-0.33;100.00;102689.94;5201057;28;20080;-79
2022/02/27 04:19:13;;;;;;;11.05;3.42;;;;;;;-0.33;100.00;102695.09;5200919;28;20029;-79
2022/02/27 04:21:44;;;;;;;9.40;3.20;;;;;;;-0.33;100.00;102691.63;5200868;28;20483;-79
2022/02/27 04:24:14;;;;;;;12.40;3.45;;;;;;;-0.39;100.00;102705.06;5204168;28;20102;-78
2022/02/27 04:26:44;;;;;;;12.48;3.28;;;;;;;-0.40;100.00;102705.03;5205015;28;20025;-78
2022/02/27 04:29:14;;;;;;;9.77;3.00;;;;;;;-0.24;100.00;102700.59;5203932;28;20029;-79
2022/02/27 04:31:45;;;;;;;8.70;2.70;;;;;;;-0.36;100.00;102696.63;5205143;28;20033;-79
2022/02/27 04:34:15;;;;;;;9.60;3.50;;;;;;;-0.42;100.00;102704.09;5203827;28;20527;-79
2022/02/27 04:36:46;;;;;;;9.95;3.28;;;;;;;-0.48;100.00;102708.94;5202545;28;20700;-80
2022/02/27 04:39:17;;;;;;;9.55;3.38;;;;;;;-0.73;100.00;102696.75;5203919;28;20059;-79
2022/02/27 04:41:47;;;;;;;11.52;3.33;;;;;;;-0.79;100.00;102709.31;5204655;28;20037;-79
2022/02/27 04:44:17;;;;;;;8.07;3.85;;;;;;;-0.76;100.00;102711.16;5205524;28;20048;-79
2022/02/27 04:46:47;;;;;;;10.70;2.95;;;;;;;-0.79;100.00;102706.75;5204192;28;20025;-78
2022/02/27 04:49:18;;;;;;;13.20;3.42;;;;;;;-0.69;100.00;102700.31;5204460;28;20030;-79
2022/02/27 04:51:48;;;;;;;7.90;3.05;;;;;;;-0.54;100.00;102704.41;5202731;28;20028;-78
2022/02/27 04:54:19;;;;;;;12.85;3.35;;;;;;;-0.94;100.00;102697.47;5204982;28;20576;-79
2022/02/27 04:56:50;;;;;;;9.57;3.15;;;;;;;-0.97;100.00;102703.38;5202764;28;20026;-78
2022/02/27 04:59:20;;;;;;;10.40;3.30;;;;;;;-0.93;100.00;102691.56;5201516;28;20056;-80
2022/02/27 05:01:50;;;;;;;12.15;3.38;;;;;;;-1.02;100.00;102694.59;5202870;28;20521;-78
2022/02/27 05:04:20;;;;;;;6.68;2.83;;;;;;;-1.23;100.00;102701.31;5202019;28;20033;-79
2022/02/27 05:06:51;;;;;;;8.43;2.80;;;;;;;-1.18;100.00;102701.53;5202440;28;20028;-79
2022/02/27 05:09:21;;;;;;;8.50;3.05;;;;;;;-1.28;100.00;102699.34;5202132;28;20043;-79
2022/02/27 05:11:52;;;;;;;9.50;3.15;;;;;;;-1.23;100.00;102697.88;5202698;28;20017;-79
2022/02/27 05:14:22;;;;;;;10.02;3.15;;;;;;;-1.23;100.00;102701.31;5203289;28;20120;-79
2022/02/27 05:16:52;;;;;;;6.70;2.70;;;;;;;-1.10;100.00;102705.34;5203789;28;20056;-79
2022/02/27 05:19:23;;;;;;;9.45;2.92;;;;;;;-1.10;100.00;102706.19;5203808;28;20029;-79
2022/02/27 05:21:53;;;;;;;7.60;3.13;;;;;;;-1.08;100.00;102713.97;5203739;28;20487;-79
2022/02/27 05:24:23;;;;;;;6.32;2.70;;;;;;;-1.05;100.00;102716.66;5203826;28;20060;-79
2022/02/27 05:26:53;;;;;;;11.85;2.90;;;;;;;-1.14;100.00;102705.97;5203375;28;20032;-78
2022/02/27 05:29:24;;;;;;;6.25;2.78;;;;;;;-1.13;100.00;102718.00;5204290;28;20130;-79
2022/02/27 05:31:54;;;;;;;6.85;3.45;;;;;;;-1.03;100.00;102717.59;5204283;28;20017;-79
2022/02/27 05:34:25;;;;;;;10.60;3.00;;;;;;;-1.11;100.00;102713.81;5202867;28;20094;-78
2022/02/27 05:36:55;;;;;;;10.02;2.92;;;;;;;-1.19;100.00;102713.47;5200180;28;20464;-78
2022/02/27 05:39:26;;;;;;;8.50;2.65;;;;;;;-1.33;100.00;102717.09;5207964;28;20025;-78
2022/02/27 05:41:56;;;;;;;11.20;3.20;;;;;;;-1.38;100.00;102727.94;5214931;28;20407;-78
2022/02/27 05:44:26;;;;;;;9.30;2.60;;;;;;;-1.41;100.00;102725.25;5216437;28;20034;-78
2022/02/27 05:46:57;;;;;;;7.95;3.05;;;;;;;-1.45;100.00;102728.44;5216435;28;20025;-78
2022/02/27 05:49:27;;;;;;;8.27;2.88;;;;;;;-1.45;100.00;102728.44;5212338;28;20037;-80
2022/02/27 05:51:57;;;;;;;7.57;3.17;;;;;;;-1.29;100.00;102733.47;5205111;28;20274;-79
2022/02/27 05:54:27;;;;;;;8.50;2.63;;;;;;;-1.32;100.00;102731.69;5205308;28;20108;-78
2022/02/27 05:56:58;;;;;;;8.75;3.30;;;;;;;-1.29;100.00;102733.47;5203061;28;20496;-79
2022/02/27 05:59:28;;;;;;;9.95;3.35;;;;;;;-1.23;100.00;102736.34;5203901;28;20123;-79
2022/02/27 06:01:58;;;;;;;7.65;3.33;;;;;;;-1.36;100.00;102745.16;5202064;28;20036;-79
2022/02/27 06:04:29;;;;;;;10.25;3.28;;;;;;;-1.27;100.00;102734.47;5200200;28;20029;-78
2022/02/27 06:07:02;;;;;;;11.27;3.55;;;;;;;-1.29;100.00;102741.16;5202477;28;20070;-79
2022/02/27 06:09:32;;;;;;;9.27;3.30;;;;;;;-1.30;100.00;102747.13;5203274;28;20037;-80
2022/02/27 06:12:02;;;;;;;10.45;3.72;;;;;;;-1.40;100.00;102747.50;5204160;28;20093;-79
2022/02/27 06:14:33;;;;;;;6.93;3.05;;;;;;;-1.48;100.00;102744.59;5205713;28;20029;-79
2022/02/27 06:17:03;;;;;;;9.70;2.85;;;;;;;-1.41;100.00;102746.63;5204773;28;20462;-79
2022/02/27 06:19:34;;;;;;;9.13;3.20;;;;;;;-1.40;100.00;102744.94;5204334;28;20090;-79
2022/02/27 06:22:04;;;;;;;8.20;3.22;;;;;;;-1.41;100.00;102746.63;5204499;28;20673;-79
2022/02/27 06:24:34;;;;;;;9.02;2.88;;;;;;;-1.40;100.00;102742.38;5204243;28;20216;-80
2022/02/27 06:27:04;;;;;;;11.63;3.45;;;;;;;-1.36;100.00;102754.53;5204086;28;20087;-80
2022/02/27 06:29:35;;;;;;;12.95;3.63;;;;;;;-1.32;100.00;102756.44;5203820;28;20416;-80
2022/02/27 06:32:05;;;;;;;10.35;2.58;;;;;;;-1.32;100.00;102753.84;5205349;28;20026;-80
2022/02/27 06:34:36;;;;;;;10.68;3.00;;;;;;;-1.21;100.00;102762.94;5204036;28;20236;-80
2022/02/27 06:37:06;;;;;;;10.02;3.33;;;;;;;-1.12;100.00;102755.66;5205050;28;20617;-79
2022/02/27 06:39:36;;;;;;;12.55;3.47;;;;;;;-1.08;100.00;102762.72;5205552;28;20036;-80
2022/02/27 06:42:07;;;;;;;9.23;3.55;;;;;;;-1.05;100.00;102760.28;5203576;28;20025;-79
2022/02/27 06:44:37;;;;;;;13.25;3.55;;;;;;;-0.87;100.00;102761.13;5205324;28;20041;-79
2022/02/27 06:47:07;;;;;;;9.82;3.78;;;;;;;-0.83;100.00;102766.47;5202487;28;20517;-80
2022/02/27 06:49:37;;;;;;;11.60;3.95;;;;;;;-0.65;100.00;102771.50;5205362;28;20383;-79
2022/02/27 06:52:08;;;;;;;13.00;3.70;;;;;;;-0.55;100.00;102763.44;5203825;28;20021;-79
2022/02/27 06:54:38;;;;;;;11.35;4.35;;;;;;;-0.63;100.00;102767.31;5205091;28;20045;-79
2022/02/27 06:57:09;;;;;;;10.52;3.75;;;;;;;-0.45;100.00;102765.56;5205075;28;20037;-80
2022/02/27 06:59:39;;;;;;;11.32;4.22;;;;;;;-0.39;100.00;102771.00;5203686;28;20021;-80
2022/02/27 07:02:10;;;;;;;10.35;3.90;;;;;;;-0.31;100.00;102767.94;5204154;28;20510;-79
2022/02/27 07:04:40;;;;;;;11.13;4.57;;;;;;;-0.28;100.00;102778.34;5205083;28;20029;-79
2022/02/27 07:07:11;;;;;;;13.60;4.45;;;;;;;-0.19;100.00;102781.28;5204525;28;20077;-80
2022/02/27 07:09:41;;;;;;;11.18;4.07;;;;;;;-0.26;100.00;102783.53;5203898;28;20036;-80
2022/02/27 07:12:11;;;;;;;11.82;4.40;;;;;;;-0.15;100.00;102778.06;5204098;28;20146;-79
2022/02/27 07:14:42;;;;;;;7.72;3.45;;;;;;;-0.12;100.00;102783.31;5204689;28;20171;-80
2022/02/27 07:17:13;;;;;;;7.35;3.58;;;;;;;0.09;100.00;102785.09;5202303;28;20120;-80
2022/02/27 07:19:43;;;;;;;7.97;3.35;;;;;;;0.15;100.00;102780.22;5203575;28;20132;-80
2022/02/27 07:22:13;;;;;;;11.20;3.35;;;;;;;0.08;100.00;102778.19;5202681;28;20029;-79
2022/02/27 07:24:44;;;;;;;13.70;4.03;;;;;;;0.19;100.00;102786.38;5204053;28;20037;-80
2022/02/27 07:27:15;;;;;;;9.27;3.60;;;;;;;0.46;100.00;102780.66;5203649;28;20515;-80
2022/02/27 07:29:45;;;;;;;14.35;4.00;;;;;;;0.36;100.00;102790.50;5204286;28;20377;-80
2022/02/27 07:32:15;;;;;;;16.15;4.00;;;;;;;0.59;100.00;102784.59;5201624;28;20301;-80
2022/02/27 07:34:46;;;;;;;10.68;4.38;;;;;;;1.91;100.00;102785.31;5203936;28;20035;-80
2022/02/27 07:37:16;;;;;;;10.70;4.28;;;;;;;4.23;100.00;102782.97;5202920;28;20180;-81
2022/02/27 07:39:46;;;;;;;15.02;4.35;;;;;;;4.12;88.92;102780.94;5203479;28;20032;-81
2022/02/27 07:42:17;;;;;;;9.82;4.25;;;;;;;5.03;88.89;102775.41;5203194;28;20337;-80
2022/02/27 07:44:47;;;;;;;11.57;4.60;;;;;;;5.19;83.85;102761.03;5203128;28;20531;-81
2022/02/27 07:47:17;;;;;;;11.32;4.10;;;;;;;4.84;85.80;102762.84;5203862;28;20025;-81
2022/02/27 07:49:47;;;;;;;10.70;3.70;;;;;;;5.40;87.48;102768.41;5205460;28;20108;-81
2022/02/27 07:52:19;;;;;;;8.32;4.03;;;;;;;5.50;84.98;102764.28;5202354;28;20029;-81
2022/02/27 07:54:49;;;;;;;9.95;3.97;;;;;;;5.41;86.94;102761.53;5199804;28;20029;-81
2022/02/27 07:57:19;;;;;;;10.10;4.18;;;;;;;6.18;83.56;102762.16;5203040;28;20140;-81
2022/02/27 07:59:50;;;;;;;9.27;4.10;;;;;;;6.10;87.37;102765.50;5206325;28;20032;-81
2022/02/27 08:02:20;;;;;;;10.68;4.80;;;;;;;7.34;81.00;102765.66;5205532;28;20026;-81
2022/02/27 08:04:50;;;;;;;10.00;4.70;;;;;;;7.27;80.70;102769.91;5208271;28;20026;-82
2022/02/27 08:07:20;;;;;;;9.27;4.50;;;;;;;10.38;72.15;102754.63;5204911;28;20033;-82
2022/02/27 08:09:51;;;;;;;9.20;4.57;;;;;;;9.81;73.28;102753.69;5207890;28;20021;-81
2022/02/27 08:12:21;;;;;;;9.93;4.45;;;;;;;10.65;69.38;102759.00;5207356;28;20833;-81
2022/02/27 08:14:51;;;;;;;8.98;4.22;;;;;;;11.46;68.07;102760.50;5207384;28;20036;-81
2022/02/27 08:17:21;;;;;;;11.07;4.53;;;;;;;11.21;68.50;102756.25;5207467;28;20045;-81
2022/02/27 08:19:52;;;;;;;11.10;4.40;;;;;;;10.90;69.17;102758.06;5207497;28;20052;-80
2022/02/27 08:22:22;;;;;;;10.82;4.55;;;;;;;10.42;68.48;102761.63;5205959;28;20061;-80
2022/02/27 08:24:52;;;;;;;9.70;4.53;;;;;;;11.22;69.86;102762.34;5205011;28;20037;-81
2022/02/27 08:27:23;;;;;;;13.98;4.82;;;;;;;11.77;67.12;102754.25;5205489;28;20022;-80
2022/02/27 08:29:53;;;;;;;10.30;4.53;;;;;;;11.36;67.63;102753.56;5205561;28;20075;-80
2022/02/27 08:32:24;;;;;;;11.75;4.50;;;;;;;11.58;67.86;102750.00;5204261;28;20179;-81
2022/02/27 08:34:54;;;;;;;11.73;4.70;;;;;;;11.21;67.19;102753.63;5206292;28;20221;-80
2022/02/27 08:37:25;;;;;;;13.13;5.15;;;;;;;11.06;68.55;102761.53;5205625;28;20420;-81
2022/02/27 08:39:55;;;;;;;11.07;4.60;;;;;;;10.94;70.64;102757.19;5205382;28;20029;-81
2022/02/27 08:42:30;;;;;;;10.60;4.47;;;;;;;10.79;69.37;102765.94;5206610;28;20025;-81
2022/02/27 08:45:00;;;;;;;13.33;5.20;;;;;;;11.19;70.02;102755.38;5206543;28;20028;-81
2022/02/27 08:47:30;;;;;;;10.95;5.20;;;;;;;10.94;70.75;102757.19;5207063;28;20541;-79
2022/02/27 08:50:01;;;;;;;13.90;5.45;;;;;;;10.47;71.20;102770.31;5205967;28;20033;-81
2022/02/27 08:52:31;;;;;;;13.00;5.15;;;;;;;10.33;72.85;102765.97;5202782;28;20025;-83
2022/02/27 08:55:02;;;;;;;11.73;5.27;;;;;;;10.26;72.57;102765.09;5203944;28;20025;-82
2022/02/27 08:57:33;;;;;;;10.93;4.90;;;;;;;11.36;70.14;102761.44;5204140;28;20280;-81
2022/02/27 09:00:06;;;;;;;15.25;5.75;;;;;;;11.39;70.10;102771.88;5203648;28;20033;-81
2022/02/27 09:02:37;;;;;;;12.82;5.47;;;;;;;10.08;74.16;102774.66;5204148;28;20033;-82
2022/02/27 09:05:07;;;;;;;10.45;4.75;;;;;;;10.75;72.26;102768.56;5203678;28;20083;-81
2022/02/27 09:07:38;;;;;;;15.35;5.32;;;;;;;10.16;72.66;102770.31;5206161;28;20093;-83
2022/02/27 09:10:12;;;;;;;12.30;5.35;;;;;;;10.63;72.69;102760.72;5204334;28;20063;-82
2022/02/27 09:12:44;;;;;;;13.10;6.60;;;;;;;9.89;75.45;102767.63;5204599;28;20022;-78
2022/02/27 09:15:14;;;;;;;16.48;8.23;;;;;;;9.00;77.57;102774.22;5205873;28;20025;-78
2022/02/27 09:17:45;;;;;;;21.92;8.40;;;;;;;7.59;84.09;102787.66;5206978;28;20409;-80
2022/02/27 09:20:15;;;;;;;18.95;8.80;;;;;;;6.95;87.93;102790.25;5205694;28;20025;-81
2022/02/27 09:22:45;;;;;;;25.85;10.20;;;;;;;6.49;93.18;102787.81;5204698;28;20517;-81
2022/02/27 09:25:16;;;;;;;20.33;9.77;;;;;;;6.22;93.17;102789.94;5204033;28;20025;-79
2022/02/27 09:27:46;;;;;;;22.67;9.85;;;;;;;6.36;93.43;102788.44;5204542;28;20033;-80
2022/02/27 09:30:16;;;;;;;23.20;9.77;;;;;;;6.17;94.43;102786.38;5205284;28;20677;-82
2022/02/27 09:32:47;;;;;;;24.38;9.27;;;;;;;6.07;94.86;102787.06;5202953;28;20033;-81
2022/02/27 09:35:17;;;;;;;21.35;8.52;;;;;;;6.14;96.07;102785.44;5203723;28;20021;-82
2022/02/27 09:37:47;;;;;;;22.98;8.60;;;;;;;5.71;96.02;102786.34;5204933;28;20116;-82
2022/02/27 09:40:17;;;;;;;23.08;8.85;;;;;;;5.95;96.95;102780.78;5204465;28;20032;-81
2022/02/27 09:42:49;;;;;;;22.00;9.18;;;;;;;5.97;96.76;102779.09;5204191;28;20107;-80
2022/02/27 09:45:21;;;;;;;20.27;8.85;;;;;;;6.23;97.77;102790.81;5203158;28;20121;-80
2022/02/27 09:47:53;;;;;;;23.33;9.75;;;;;;;5.75;97.41;102787.28;5182071;23;1078723;-76
2022/02/27 09:50:25;;;;;;;24.75;9.48;;;;;;;6.12;99.07;102792.34;5194108;28;20095;-76
2022/02/27 09:52:55;;;;;;;21.42;9.70;;;;;;;6.02;97.72;102793.00;5190319;28;20037;-76
2022/02/27 09:55:25;;;;;;;20.45;9.70;;;;;;;6.13;98.56;102788.91;5188999;28;20403;-76
2022/02/27 09:57:55;;;;;;;19.02;9.57;;;;;;;5.84;98.33;102796.16;5182233;28;20522;-76
2022/02/27 10:00:27;;;;;;;21.90;10.23;;;;;;;6.02;99.56;102793.00;5187769;28;20034;-76
2022/02/27 10:03:14;;;;;;;24.50;10.15;;;;;;;5.92;99.68;102804.09;5192021;28;20033;-76
2022/02/27 10:05:46;;;;;;;23.45;9.95;;;;;;;5.75;100.00;102797.66;5188656;28;20596;-76
2022/02/27 10:08:16;;;;;;;16.50;9.77;;;;;;;5.62;100.00;102804.34;5187223;28;20076;-76
2022/02/27 10:10:57;;;;;;;20.02;9.98;;;;;;;5.77;99.88;102806.34;5199999;28;20183;-76
2022/02/27 10:13:39;;;;;;;19.35;10.25;;;;;;;5.93;100.00;102790.25;5192131;28;20119;-76
2022/02/27 10:16:14;;;;;;;21.92;10.70;;;;;;;5.90;98.99;102795.41;5194700;28;20040;-76
2022/02/27 10:18:46;;;;;;;22.50;10.43;;;;;;;5.61;99.04;102792.19;5195206;28;20053;-76
2022/02/27 10:21:31;;;;;;;19.33;10.15;;;;;;;6.13;100.00;102787.19;5186818;28;20033;-76
2022/02/27 10:24:12;;;;;;;20.35;11.02;;;;;;;6.20;100.00;102789.03;5182462;28;20053;-76
2022/02/27 10:26:45;;;;;;;18.63;11.27;;;;;;;6.26;100.00;102783.06;5181667;28;20108;-76
2022/02/27 10:29:21;;;;;;;25.17;11.00;;;;;;;6.19;100.00;102781.19;5188366;28;20033;-76
2022/02/27 10:31:54;;;;;;;27.10;12.02;;;;;;;6.36;100.00;102775.47;5184838;28;20030;-76
2022/02/27 10:34:26;;;;;;;23.98;12.15;;;;;;;6.44;100.00;102779.03;5188693;28;20133;-76
2022/02/27 10:37:14;;;;;;;21.63;11.02;;;;;;;6.31;99.07;102773.63;5184023;28;20038;-77
2022/02/27 10:39:48;;;;;;;23.25;10.73;;;;;;;6.41;100.00;102767.75;5194931;28;20037;-76
2022/02/27 10:42:19;;;;;;;22.10;11.20;;;;;;;6.03;100.00;102764.50;5194381;28;20029;-76
2022/02/27 10:44:55;;;;;;;26.95;10.88;;;;;;;6.40;100.00;102764.28;5193141;28;20033;-76
2022/02/27 10:47:30;;;;;;;21.38;10.50;;;;;;;6.55;100.00;102758.44;5187833;28;20037;-76
2022/02/27 10:50:11;;;;;;;25.35;11.52;;;;;;;6.64;100.00;102762.06;5187585;28;20171;-76
2022/02/27 10:52:44;;;;;;;21.75;11.77;;;;;;;6.78;100.00;102759.69;5190208;28;20045;-76
2022/02/27 10:55:16;;;;;;;22.48;10.55;;;;;;;6.91;100.00;102753.81;5185117;28;20110;-76
2022/02/27 10:57:50;;;;;;;22.08;9.55;;;;;;;6.82;99.50;102743.28;5185871;28;20506;-76
2022/02/27 11:00:35;;;;;;;23.75;10.43;;;;;;;7.07;99.91;102741.03;5181821;28;20057;-77
2022/02/27 11:03:09;;;;;;;17.38;8.48;;;;;;;7.07;98.00;102740.16;5187263;28;20099;-76
2022/02/27 11:05:41;;;;;;;24.55;9.32;;;;;;;6.99;97.74;102744.38;5185168;28;20037;-76
2022/02/27 11:08:12;;;;;;;23.58;8.55;;;;;;;6.92;97.28;102737.38;5180903;28;20825;-76
2022/02/27 11:10:43;;;;;;;23.27;6.93;;;;;;;7.05;97.80;102734.06;5191570;28;20049;-76
2022/02/27 11:13:13;;;;;;;21.55;8.20;;;;;;;6.63;96.53;102738.66;5190206;28;20025;-77
2022/02/27 11:15:44;;;;;;;20.27;7.78;;;;;;;6.68;96.50;102734.41;5197801;28;20053;-77
2022/02/27 11:18:15;;;;;;;19.08;8.27;;;;;;;6.93;95.38;102726.97;5189918;28;20650;-77
2022/02/27 11:20:47;;;;;;;17.50;7.60;;;;;;;6.96;97.39;102723.53;5186943;28;20076;-76
2022/02/27 11:23:18;;;;;;;18.13;8.10;;;;;;;6.79;94.37;102732.84;5183662;28;20022;-76
2022/02/27 11:25:50;;;;;;;18.35;7.68;;;;;;;6.96;95.75;102729.59;5185505;28;20042;-76
2022/02/27 11:28:23;;;;;;;19.70;7.95;;;;;;;6.83;97.61;102732.03;5183539;28;20040;-77
2022/02/27 11:31:01;;;;;;;22.38;8.35;;;;;;;6.76;98.04;102728.47;5185836;28;20049;-76
2022/02/27 11:33:31;;;;;;;16.98;6.70;;;;;;;6.54;94.96;102722.91;5182965;28;20080;-77